Time;durP1;ratioP1;P1;durP2;ratioP2;P2;SDS_P1;SDS_P2;PMS_P1;PMS_P2;Temp;Humidity;BMP_temperature;BMP_pressure;BME280_temperature;BME280_humidity;BME280_pressure;Samples;Min_cycle;Max_cycle;Signal;HPM_P1;HPM_P2
2022/01/23 00:02:09;;;;;;;12.70;6.15;;;;;;;5.77;70.57;102176.25;5062255;28;20048;-56
2022/01/23 00:04:37;;;;;;;13.15;5.70;;;;;;;5.78;70.26;102170.31;5067358;28;20040;-59
2022/01/23 00:07:06;;;;;;;12.98;5.78;;;;;;;5.77;71.00;102165.97;5062871;28;20044;-59
2022/01/23 00:09:34;;;;;;;12.13;6.03;;;;;;;5.78;70.83;102170.31;5063018;28;20067;-59
2022/01/23 00:12:05;;;;;;;14.52;5.85;;;;;;;5.78;70.38;102172.88;5067922;28;20056;-57
2022/01/23 00:17:20;;;;;;;11.82;6.57;;;;;;;5.73;70.52;102164.94;5061874;28;20366;-55
2022/01/23 00:19:52;;;;;;;15.35;6.55;;;;;;;5.75;70.59;102159.88;5066703;28;20500;-55
2022/01/23 00:22:23;;;;;;;13.23;6.13;;;;;;;5.74;70.00;102155.53;5067730;28;20499;-60
2022/01/23 00:30:27;;;;;;;12.05;5.78;;;;;;;5.72;70.95;102167.41;5078590;28;20078;-54
2022/01/23 00:32:56;;;;;;;13.80;6.80;;;;;;;5.74;70.94;102163.25;5068789;28;20476;-60
2022/01/23 00:35:24;;;;;;;13.52;5.75;;;;;;;5.73;70.11;102148.59;5065918;28;20052;-54
2022/01/23 00:37:52;;;;;;;10.50;4.95;;;;;;;5.73;69.85;102153.75;5063846;28;20041;-58
2022/01/23 00:40:20;;;;;;;11.55;5.28;;;;;;;5.73;70.72;102153.75;5062230;28;20094;-59
2022/01/23 00:42:47;;;;;;;10.75;4.72;;;;;;;5.72;70.42;102152.88;5068678;28;20045;-56
2022/01/23 00:48:06;;;;;;;11.38;5.05;;;;;;;5.73;71.04;102144.34;5064115;28;20131;-57
2022/01/23 00:50:36;;;;;;;13.80;5.57;;;;;;;5.74;70.31;102146.13;5061968;28;20044;-57
2022/01/23 00:53:09;;;;;;;11.55;5.30;;;;;;;5.75;70.19;102147.00;5068906;28;20045;-58
2022/01/23 00:55:38;;;;;;;13.10;6.10;;;;;;;5.77;70.47;102147.97;5062627;28;20059;-57
2022/01/23 00:58:05;;;;;;;12.00;5.63;;;;;;;5.76;70.67;102143.63;5066657;28;20048;-59
2022/01/23 01:00:33;;;;;;;12.68;5.70;;;;;;;5.78;69.89;102139.47;5064112;28;20048;-57
2022/01/23 01:03:00;;;;;;;11.63;5.55;;;;;;;5.76;69.84;102135.91;5068073;28;20041;-56
2022/01/23 01:05:26;;;;;;;11.73;5.28;;;;;;;5.75;70.28;102134.16;5064566;28;20052;-58
2022/01/23 01:07:55;;;;;;;10.85;5.40;;;;;;;5.75;70.95;102136.72;5063610;28;20040;-57
2022/01/23 01:10:27;;;;;;;12.73;5.60;;;;;;;5.75;70.29;102131.59;5065607;28;20048;-56
2022/01/23 01:12:59;;;;;;;12.75;5.32;;;;;;;5.73;70.94;102134.06;5065642;28;20107;-56
2022/01/23 01:15:35;;;;;;;14.80;6.32;;;;;;;5.73;70.97;102122.91;5063385;28;20110;-57
2022/01/23 01:32:01;;;;;;;10.90;4.95;;;;;;;5.71;70.80;102125.38;5060808;28;20056;-55
2022/01/23 01:34:39;;;;;;;11.48;4.72;;;;;;;5.71;71.20;102124.53;5067198;28;20102;-54
2022/01/23 01:37:06;;;;;;;13.18;6.40;;;;;;;5.71;70.87;102120.25;5063867;28;20459;-57
2022/01/23 01:39:41;;;;;;;11.32;5.15;;;;;;;5.71;70.29;102119.38;5066998;28;20127;-53
2022/01/23 01:42:08;;;;;;;11.30;4.97;;;;;;;5.72;70.21;102121.13;5062675;28;20106;-59
2022/01/23 01:44:35;;;;;;;10.80;5.60;;;;;;;5.72;70.25;102126.28;5065023;28;20048;-56
2022/01/23 01:47:02;;;;;;;11.07;5.30;;;;;;;5.73;70.60;102122.91;5063565;28;20056;-59
2022/01/23 01:49:31;;;;;;;13.02;5.35;;;;;;;5.73;70.01;102125.47;5065378;28;20068;-53
2022/01/23 01:52:00;;;;;;;13.35;5.25;;;;;;;5.73;70.77;102122.91;5067717;28;20052;-56
2022/01/23 01:54:30;;;;;;;12.30;6.03;;;;;;;5.73;70.61;102128.03;5065246;28;20082;-57
2022/01/23 01:57:07;;;;;;;12.60;5.15;;;;;;;5.73;70.50;102123.78;5066380;28;20057;-55
2022/01/23 02:00:00;;;;;;;12.40;5.85;;;;;;;5.74;70.08;102124.69;5065466;28;20040;-59
2022/01/23 02:03:05;;;;;;;12.73;5.00;;;;;;;5.72;70.52;102113.41;5062172;28;20053;-56
2022/01/23 02:10:50;;;;;;;13.07;5.32;;;;;;;5.69;70.14;102110.69;5064907;28;20048;-54
2022/01/23 02:13:23;;;;;;;14.10;5.00;;;;;;;5.69;70.72;102106.44;5059586;28;20052;-55
2022/01/23 02:16:34;;;;;;;13.57;5.43;;;;;;;5.68;70.92;102103.78;5061248;28;20048;-57
2022/01/23 02:22:31;;;;;;;13.48;6.75;;;;;;;5.68;70.50;102111.50;5062286;28;20040;-58
2022/01/23 02:24:48;;;;;;;13.75;5.43;;;;;;;5.66;71.07;102112.31;5061034;28;20106;-56
2022/01/23 02:52:33;;;;;;;11.43;5.60;;;;;;;5.62;71.20;102100.13;5060531;28;20102;-56
2022/01/23 02:54:58;;;;;;;13.05;5.85;;;;;;;5.60;71.46;102099.13;5063438;28;20045;-56
2022/01/23 02:57:41;;;;;;;12.23;5.57;;;;;;;5.61;70.53;102100.91;5062850;28;20106;-56
2022/01/23 03:00:13;;;;;;;11.63;5.35;;;;;;;5.60;70.39;102098.25;5062929;28;20040;-54
2022/01/23 03:02:45;;;;;;;9.50;4.57;;;;;;;5.60;70.52;102088.84;5062426;28;20102;-59
2022/01/23 03:05:23;;;;;;;10.73;5.03;;;;;;;5.60;70.58;102086.28;5060726;28;20564;-56
2022/01/23 03:08:04;;;;;;;10.38;4.97;;;;;;;5.59;70.40;102092.25;5061880;28;20045;-57
2022/01/23 03:10:38;;;;;;;12.00;5.00;;;;;;;5.58;70.66;102082.78;5062584;28;20068;-60
2022/01/23 03:13:38;;;;;;;13.45;4.97;;;;;;;5.58;70.91;102080.19;5065502;28;20047;-58
2022/01/23 03:16:17;;;;;;;11.45;4.82;;;;;;;5.58;70.54;102081.88;5060498;28;20048;-57
2022/01/23 03:24:23;;;;;;;11.95;4.15;;;;;;;5.55;71.18;102076.56;5080408;28;20048;-57
2022/01/23 03:29:53;;;;;;;12.93;4.70;;;;;;;5.55;70.36;102090.31;5080339;28;20048;-56
2022/01/23 03:32:25;;;;;;;10.20;4.63;;;;;;;5.55;70.67;102092.88;5064707;28;20044;-54
2022/01/23 03:34:52;;;;;;;11.13;5.60;;;;;;;5.56;70.33;102092.06;5066414;28;20569;-55
2022/01/23 03:37:19;;;;;;;12.40;5.38;;;;;;;5.56;70.80;102084.38;5063880;28;20071;-57
2022/01/23 03:39:46;;;;;;;9.95;5.07;;;;;;;5.57;71.21;102091.25;5068450;28;20374;-56
2022/01/23 03:42:13;;;;;;;11.27;4.63;;;;;;;5.58;70.86;102087.00;5062397;28;20053;-60
2022/01/23 03:44:48;;;;;;;9.73;4.70;;;;;;;5.58;70.13;102080.19;5066141;28;20044;-58
2022/01/23 03:47:32;;;;;;;9.25;4.55;;;;;;;5.60;70.18;102075.09;5066898;28;20048;-54
2022/01/23 03:49:58;;;;;;;10.68;4.57;;;;;;;5.59;70.42;102073.34;5065356;28;20044;-55
2022/01/23 03:52:26;;;;;;;8.90;4.20;;;;;;;5.59;70.67;102078.50;5064368;28;20553;-57
2022/01/23 03:54:54;;;;;;;11.90;4.88;;;;;;;5.60;70.70;102081.13;5065399;28;20106;-60
2022/01/23 03:57:20;;;;;;;10.32;4.88;;;;;;;5.60;70.57;102083.72;5064900;28;20057;-58
2022/01/23 03:59:47;;;;;;;11.32;4.68;;;;;;;5.58;70.70;102080.19;5065073;28;20114;-55
2022/01/23 04:02:16;;;;;;;13.10;6.53;;;;;;;5.59;71.07;102071.66;5063322;28;20446;-55
2022/01/23 04:04:43;;;;;;;12.52;5.28;;;;;;;5.58;70.34;102066.44;5061478;28;20389;-58
2022/01/23 04:07:16;;;;;;;12.38;5.07;;;;;;;5.55;70.44;102066.28;5067285;28;20052;-54
2022/01/23 04:09:44;;;;;;;12.00;5.05;;;;;;;5.53;70.89;102058.50;5062938;28;20066;-57
2022/01/23 04:12:26;;;;;;;12.90;5.88;;;;;;;5.56;70.25;102060.34;5067248;28;20098;-56
2022/01/23 04:19:03;;;;;;;9.80;4.53;;;;;;;5.57;71.33;102068.13;5069163;28;20126;-58
2022/01/23 04:32:06;;;;;;;12.23;5.35;;;;;;;5.54;71.07;102055.09;5062439;28;20125;-57
2022/01/23 04:34:29;;;;;;;11.00;4.22;;;;;;;5.54;70.56;102060.25;5061642;28;20440;-56
2022/01/23 04:45:30;;;;;;;10.20;5.50;;;;;;;5.53;70.59;102059.41;5076684;28;20645;-57
2022/01/23 04:48:52;;;;;;;15.05;5.53;;;;;;;5.53;71.18;102058.50;5066038;28;20044;-58
2022/01/23 05:03:02;;;;;;;10.63;4.65;;;;;;;5.53;71.06;102048.22;5061743;28;20050;-57
2022/01/23 05:04:40;;;;;;;10.73;4.68;;;;;;;5.51;71.05;102047.28;5065767;28;20044;-58
2022/01/23 05:07:10;;;;;;;11.95;5.20;;;;;;;5.51;70.71;102054.97;5061907;28;20177;-56
2022/01/23 05:09:37;;;;;;;12.95;4.82;;;;;;;5.52;71.09;102061.88;5067995;28;20117;-56
2022/01/23 05:12:07;;;;;;;10.52;4.55;;;;;;;5.52;70.85;102062.78;5061881;28;20098;-56
2022/01/23 05:14:39;;;;;;;12.63;5.60;;;;;;;5.52;71.05;102056.75;5064030;28;20095;-55
2022/01/23 05:17:09;;;;;;;11.05;4.15;;;;;;;5.52;70.99;102059.31;5059826;28;20052;-55
2022/01/23 05:19:37;;;;;;;11.85;5.55;;;;;;;5.51;70.99;102054.97;5065248;28;20040;-54
2022/01/23 05:22:19;;;;;;;12.02;5.47;;;;;;;5.51;71.01;102055.84;5062813;28;20474;-53
2022/01/23 05:24:53;;;;;;;11.10;5.57;;;;;;;5.51;71.19;102049.84;5063924;28;20115;-56
2022/01/23 05:27:22;;;;;;;14.05;5.35;;;;;;;5.50;71.32;102048.06;5062442;28;20057;-56
2022/01/23 05:29:50;;;;;;;13.75;4.95;;;;;;;5.51;71.06;102044.69;5063793;28;20746;-56
2022/01/23 05:32:17;;;;;;;12.48;6.13;;;;;;;5.51;70.50;102044.69;5063509;28;20393;-54
2022/01/23 05:34:45;;;;;;;13.73;5.22;;;;;;;5.50;71.16;102040.34;5065365;28;20101;-56
2022/01/23 05:37:11;;;;;;;14.98;5.45;;;;;;;5.49;71.31;102046.28;5063016;28;20057;-58
2022/01/23 05:39:38;;;;;;;12.60;5.13;;;;;;;5.48;70.48;102049.69;5064339;28;20519;-58
2022/01/23 05:42:07;;;;;;;15.15;5.13;;;;;;;5.49;71.25;102046.28;5064806;28;20040;-56
2022/01/23 05:44:35;;;;;;;12.10;4.70;;;;;;;5.49;70.44;102047.19;5062830;28;20052;-61
2022/01/23 05:47:02;;;;;;;11.77;4.57;;;;;;;5.47;70.96;102043.66;5066901;28;20045;-58
2022/01/23 05:49:29;;;;;;;11.13;4.05;;;;;;;5.48;71.00;102039.41;5063200;28;20098;-56
2022/01/23 05:51:56;;;;;;;11.50;4.85;;;;;;;5.47;70.55;102042.78;5067217;28;20078;-56
2022/01/23 05:54:22;;;;;;;10.45;4.55;;;;;;;5.47;70.60;102042.78;5064523;28;20093;-54
2022/01/23 05:56:49;;;;;;;11.52;4.40;;;;;;;5.45;70.43;102047.84;5066266;28;20071;-56
2022/01/23 05:59:16;;;;;;;13.52;4.85;;;;;;;5.43;71.17;102046.00;5062229;28;22178;-56
2022/01/23 06:01:44;;;;;;;11.82;5.05;;;;;;;5.42;71.13;102044.22;5066037;28;20439;-59
2022/01/23 06:04:10;;;;;;;9.57;4.40;;;;;;;5.42;70.94;102046.78;5060782;28;20179;-56
2022/01/23 06:06:37;;;;;;;12.30;5.30;;;;;;;5.40;71.31;102042.47;5068107;28;20530;-52
2022/01/23 06:09:04;;;;;;;13.10;5.95;;;;;;;5.41;71.06;102043.34;5062117;28;20449;-56
2022/01/23 06:11:30;;;;;;;10.63;4.25;;;;;;;5.41;70.85;102043.34;5070350;28;20044;-52
2022/01/23 06:13:57;;;;;;;10.43;4.30;;;;;;;5.40;71.04;102052.75;5059604;28;20071;-60
2022/01/23 06:16:24;;;;;;;10.85;4.68;;;;;;;5.40;70.64;102042.47;5066059;28;20049;-52
2022/01/23 06:18:50;;;;;;;11.68;4.30;;;;;;;5.38;71.26;102053.47;5065363;28;20046;-57
2022/01/23 06:21:20;;;;;;;13.68;5.85;;;;;;;5.35;70.34;102043.94;5064043;28;20048;-57
2022/01/23 06:23:54;;;;;;;12.98;5.07;;;;;;;5.34;70.55;102044.72;5062563;28;20090;-56
2022/01/23 06:26:23;;;;;;;14.68;6.75;;;;;;;5.32;70.52;102046.34;5061941;28;20443;-52
2022/01/23 06:28:57;;;;;;;14.05;5.43;;;;;;;5.32;70.51;102048.91;5064295;28;20044;-57
2022/01/23 06:31:24;;;;;;;12.25;4.45;;;;;;;5.30;70.69;102053.06;5059316;28;20090;-54
2022/01/23 06:33:51;;;;;;;12.85;5.20;;;;;;;5.28;71.19;102052.97;5067231;28;20488;-55
2022/01/23 06:36:17;;;;;;;12.23;5.18;;;;;;;5.27;70.85;102060.63;5064452;28;20057;-54
2022/01/23 06:38:44;;;;;;;13.05;4.95;;;;;;;5.27;70.73;102058.06;5063613;28;20547;-60
2022/01/23 06:41:11;;;;;;;11.77;5.10;;;;;;;5.26;70.97;102052.03;5064577;28;20044;-56
2022/01/23 06:43:38;;;;;;;12.90;5.85;;;;;;;5.26;70.83;102053.72;5065565;28;20052;-60
2022/01/23 06:46:05;;;;;;;12.98;5.45;;;;;;;5.26;70.57;102054.59;5063591;28;20048;-58
2022/01/23 06:48:31;;;;;;;12.27;5.53;;;;;;;5.25;71.11;102062.22;5063280;28;20079;-56
2022/01/23 06:50:58;;;;;;;13.50;5.70;;;;;;;5.23;71.06;102068.97;5059977;28;20174;-56
2022/01/23 06:53:24;;;;;;;13.88;5.88;;;;;;;5.20;70.75;102069.69;5067953;28;20495;-51
2022/01/23 06:55:51;;;;;;;13.75;7.38;;;;;;;5.21;71.27;102065.44;5064281;28;20365;-56
2022/01/23 06:58:18;;;;;;;15.70;5.97;;;;;;;5.17;71.46;102063.53;5071692;28;20056;-56
2022/01/23 07:00:44;;;;;;;13.27;5.72;;;;;;;5.16;71.47;102059.19;5063818;28;20102;-55
2022/01/23 07:03:12;;;;;;;13.38;6.28;;;;;;;5.16;71.10;102069.47;5070454;28;20052;-56
2022/01/23 07:05:39;;;;;;;15.05;6.18;;;;;;;5.14;71.01;102070.25;5064959;28;20049;-56
2022/01/23 07:08:05;;;;;;;12.63;5.55;;;;;;;5.15;71.01;102081.44;5069486;28;20040;-57
2022/01/23 07:10:32;;;;;;;14.63;7.13;;;;;;;5.15;71.08;102078.84;5065514;28;20439;-57
2022/01/23 07:12:59;;;;;;;13.60;6.43;;;;;;;5.17;70.53;102073.81;5071350;28;20428;-59
2022/01/23 07:15:26;;;;;;;14.10;6.40;;;;;;;5.17;70.99;102068.66;5069979;28;20110;-55
2022/01/23 07:17:53;;;;;;;12.95;5.93;;;;;;;5.14;71.20;102065.13;5066917;28;20067;-53
2022/01/23 07:20:19;;;;;;;15.50;6.00;;;;;;;5.14;70.96;102080.53;5065705;28;20053;-56
2022/01/23 07:22:46;;;;;;;17.63;6.93;;;;;;;5.12;71.15;102076.13;5069170;28;20044;-53
2022/01/23 07:25:13;;;;;;;12.98;5.88;;;;;;;5.11;70.57;102082.06;5064835;28;20110;-52
2022/01/23 07:27:47;;;;;;;14.13;5.95;;;;;;;5.09;71.02;102070.81;5063810;28;20052;-55
2022/01/23 07:33:01;;;;;;;13.77;6.80;;;;;;;5.07;71.39;102070.72;5064780;28;20106;-60
2022/01/23 07:35:28;;;;;;;13.63;5.47;;;;;;;5.05;70.81;102074.03;5065071;28;20048;-57
2022/01/23 07:37:55;;;;;;;13.02;5.75;;;;;;;5.03;70.80;102076.50;5063519;28;20049;-56
2022/01/23 07:40:21;;;;;;;14.32;5.60;;;;;;;5.04;71.46;102079.97;5069521;28;20060;-58
2022/01/23 07:42:49;;;;;;;12.88;6.43;;;;;;;5.06;71.64;102076.69;5065901;28;20125;-55
2022/01/23 07:45:16;;;;;;;29.10;12.50;;;;;;;5.05;71.19;102074.91;5066853;28;20052;-53
2022/01/23 07:47:44;;;;;;;14.88;6.85;;;;;;;5.03;71.30;102076.50;5062595;28;20110;-57
2022/01/23 07:50:12;;;;;;;12.32;6.00;;;;;;;5.02;70.42;102079.88;5064963;28;20070;-60
2022/01/23 07:52:39;;;;;;;13.82;5.55;;;;;;;5.01;71.75;102078.13;5062669;28;20079;-59
2022/01/23 07:55:09;;;;;;;16.30;7.20;;;;;;;5.00;71.43;102076.38;5065068;28;20082;-54
2022/01/23 07:57:37;;;;;;;13.13;5.88;;;;;;;5.00;71.30;102073.81;5062543;28;20074;-57
2022/01/23 08:00:06;;;;;;;11.05;5.05;;;;;;;4.96;71.06;102085.59;5067837;28;20044;-57
2022/01/23 08:02:32;;;;;;;9.77;5.22;;;;;;;4.98;71.41;102088.25;5062218;28;20515;-56
2022/01/23 08:04:59;;;;;;;12.32;6.07;;;;;;;4.96;71.03;102084.72;5068841;28;20109;-55
2022/01/23 08:07:31;;;;;;;9.93;4.47;;;;;;;4.94;71.50;102081.16;5060798;28;20110;-57
2022/01/23 08:09:59;;;;;;;13.32;6.85;;;;;;;4.92;71.32;102082.75;5067456;28;20372;-57
2022/01/23 08:12:28;;;;;;;11.88;5.22;;;;;;;4.92;71.45;102081.09;5064135;28;20098;-57
2022/01/23 08:14:55;;;;;;;14.88;5.70;;;;;;;4.92;71.51;102083.66;5066418;28;20673;-56
2022/01/23 08:17:25;;;;;;;13.57;6.05;;;;;;;4.92;71.36;102088.78;5061772;28;20057;-59
2022/01/23 08:19:53;;;;;;;;;;;;;;;4.85;71.78;102087.59;5068545;28;20045;-60
2022/01/23 08:22:21;;;;;;;14.98;6.80;;;;;;;4.91;71.69;102087.03;5060771;28;19928;-59
2022/01/23 08:24:48;;;;;;;13.20;6.25;;;;;;;4.93;71.19;102092.25;5066025;28;20052;-51
2022/01/23 08:27:15;;;;;;;13.13;5.35;;;;;;;4.93;71.24;102094.81;5061001;28;20526;-51
2022/01/23 08:29:42;;;;;;;13.93;4.85;;;;;;;4.95;71.06;102100.91;5066318;28;20040;-52
2022/01/23 08:32:09;;;;;;;11.25;4.90;;;;;;;4.95;71.19;102098.34;5061805;28;20049;-58
2022/01/23 08:34:37;;;;;;;20.88;8.13;;;;;;;4.95;71.32;102104.38;5069521;28;20102;-59
2022/01/23 08:37:07;;;;;;;11.82;5.50;;;;;;;4.94;71.44;102096.59;5063101;28;20052;-58
2022/01/23 08:39:36;;;;;;;10.27;5.28;;;;;;;4.95;71.14;102093.19;5066624;28;20052;-56
2022/01/23 08:42:06;;;;;;;11.73;4.97;;;;;;;4.91;71.41;102102.44;5066290;28;20121;-56
2022/01/23 08:44:33;;;;;;;18.38;7.38;;;;;;;4.90;71.27;102110.97;5066927;28;20061;-57
2022/01/23 08:47:00;;;;;;;13.07;5.47;;;;;;;4.91;71.25;102104.13;5060453;28;20098;-56
2022/01/23 08:49:29;;;;;;;9.93;5.22;;;;;;;4.89;71.10;102102.34;5068681;28;20048;-56
2022/01/23 08:51:57;;;;;;;12.27;5.75;;;;;;;4.88;71.51;102105.72;5059404;28;20431;-59
2022/01/23 08:54:28;;;;;;;12.63;5.88;;;;;;;4.88;71.43;102098.03;5062985;28;20044;-56
2022/01/23 08:56:55;;;;;;;17.88;8.50;;;;;;;4.89;71.66;102094.66;5062181;28;20097;-53
2022/01/23 08:59:22;;;;;;;13.98;5.72;;;;;;;4.91;71.36;102092.16;5062407;28;20053;-57
2022/01/23 09:01:48;;;;;;;11.88;5.65;;;;;;;4.89;70.75;102092.09;5060533;28;20044;-55
2022/01/23 09:04:16;;;;;;;11.75;5.72;;;;;;;4.91;71.48;102099.88;5061295;28;20060;-57
2022/01/23 09:06:43;;;;;;;14.23;5.45;;;;;;;4.90;71.35;102100.69;5063801;28;20052;-54
2022/01/23 09:09:16;;;;;;;13.18;5.10;;;;;;;4.89;71.53;102094.66;5062705;28;20040;-57
2022/01/23 09:11:58;;;;;;;10.98;4.80;;;;;;;4.91;71.08;102097.31;5062899;28;20079;-58
2022/01/23 09:14:25;;;;;;;13.23;5.78;;;;;;;4.89;72.01;102112.63;5060356;28;20067;-56
2022/01/23 09:16:53;;;;;;;10.98;4.95;;;;;;;4.88;71.47;102110.88;5058848;28;20048;-57
2022/01/23 09:19:21;;;;;;;12.27;5.50;;;;;;;4.91;71.64;102114.38;5060689;28;20116;-59
2022/01/23 09:21:49;;;;;;;14.60;5.70;;;;;;;4.94;71.39;102117.13;5062066;28;20044;-57
2022/01/23 09:24:18;;;;;;;11.60;4.75;;;;;;;4.95;71.30;102117.22;5063903;28;20060;-56
2022/01/23 09:26:52;;;;;;;13.05;5.13;;;;;;;4.96;71.47;102107.84;5060384;28;20052;-61
2022/01/23 09:29:29;;;;;;;10.88;5.03;;;;;;;4.95;71.51;102111.19;5061469;28;20461;-55
2022/01/23 09:31:56;;;;;;;12.15;5.45;;;;;;;4.95;71.77;102116.31;5058592;28;20049;-58
2022/01/23 09:34:27;;;;;;;12.05;5.00;;;;;;;4.96;71.40;102110.41;5059305;28;20045;-55
2022/01/23 09:36:56;;;;;;;13.40;6.25;;;;;;;4.98;71.24;102108.78;5062868;28;20056;-53
2022/01/23 09:39:23;;;;;;;13.48;6.22;;;;;;;4.99;71.26;102105.41;5067552;28;20044;-53
2022/01/23 09:42:10;;;;;;;12.27;5.07;;;;;;;4.99;71.24;102110.53;5061436;28;20095;-59
2022/01/23 09:44:41;;;;;;;11.52;5.20;;;;;;;5.00;71.28;102102.06;5060694;28;20102;-55
2022/01/23 09:47:11;;;;;;;11.52;5.10;;;;;;;5.02;71.42;102100.44;5064059;28;20069;-55
2022/01/23 09:49:39;;;;;;;13.70;5.85;;;;;;;5.02;71.50;102105.56;5057104;28;20069;-56
2022/01/23 09:52:08;;;;;;;14.75;5.45;;;;;;;5.03;71.25;102102.19;5064669;28;20040;-53
2022/01/23 09:54:38;;;;;;;12.13;6.22;;;;;;;5.01;71.71;102103.81;5060900;28;20450;-59
2022/01/23 09:57:06;;;;;;;16.48;5.88;;;;;;;5.01;71.43;102093.53;5064753;28;20572;-55
2022/01/23 09:59:35;;;;;;;13.57;5.22;;;;;;;4.98;71.25;102095.94;5058309;28;20102;-58
2022/01/23 10:02:03;;;;;;;13.63;5.28;;;;;;;4.97;71.16;102097.63;5062318;28;20091;-54
2022/01/23 10:04:31;;;;;;;13.98;5.78;;;;;;;4.94;71.66;102094.91;5058445;28;20036;-59
2022/01/23 10:07:04;;;;;;;12.68;5.68;;;;;;;4.96;71.48;102100.13;5062574;28;20056;-60
2022/01/23 10:09:32;;;;;;;13.65;5.15;;;;;;;4.96;71.40;102102.69;5060017;28;20048;-55
2022/01/23 10:11:58;;;;;;;12.77;5.10;;;;;;;4.95;71.82;102103.47;5061588;28;23425;-51
2022/01/23 10:14:25;;;;;;;11.05;4.72;;;;;;;4.96;71.77;102100.13;5059595;28;20110;-52
2022/01/23 10:16:51;;;;;;;16.60;5.20;;;;;;;4.98;71.71;102088.25;5061351;28;21367;-57
2022/01/23 10:19:18;;;;;;;13.23;5.60;;;;;;;5.03;71.21;102093.63;5056539;28;20102;-56
2022/01/23 10:21:46;;;;;;;16.77;5.85;;;;;;;5.07;71.32;102093.84;5062550;28;20044;-56
2022/01/23 10:24:14;;;;;;;12.38;5.35;;;;;;;5.09;71.54;102087.13;5057575;28;20052;-54
2022/01/23 10:26:48;;;;;;;29.30;12.18;;;;;;;5.12;71.02;102092.44;5062174;28;20048;-57
2022/01/23 10:29:20;;;;;;;14.23;5.68;;;;;;;5.17;71.65;102086.66;5059016;28;20052;-57
2022/01/23 10:32:11;;;;;;;13.82;5.68;;;;;;;5.16;71.41;102082.31;5057236;28;20048;-57
2022/01/23 10:34:57;;;;;;;12.60;5.80;;;;;;;5.20;71.13;102089.38;5060006;28;20454;-55
2022/01/23 10:37:35;;;;;;;11.70;5.65;;;;;;;5.23;71.62;102094.66;5057489;28;20074;-57
2022/01/23 10:40:11;;;;;;;13.20;5.82;;;;;;;5.26;71.08;102098.28;5056482;28;20086;-56
2022/01/23 10:42:54;;;;;;;12.60;6.35;;;;;;;5.28;70.59;102093.22;5059780;28;20053;-54
2022/01/23 10:48:42;;;;;;;14.38;5.90;;;;;;;5.27;71.18;102101.75;5058345;28;20107;-52
2022/01/23 10:51:29;;;;;;;11.55;5.13;;;;;;;5.26;70.50;102105.09;5056342;28;20041;-58
2022/01/23 10:54:02;;;;;;;11.75;5.30;;;;;;;5.24;70.41;102104.16;5056515;28;20048;-57
2022/01/23 10:56:32;;;;;;;13.63;5.82;;;;;;;5.24;70.50;102096.44;5059152;28;20052;-54
2022/01/23 10:59:03;;;;;;;15.93;5.93;;;;;;;5.26;70.50;102094.81;5056344;28;20053;-54
2022/01/23 11:01:30;;;;;;;12.73;5.10;;;;;;;5.24;70.49;102096.44;5056554;28;20545;-57
2022/01/23 11:04:14;;;;;;;11.45;5.13;;;;;;;5.24;70.92;102091.31;5061078;28;20461;-54
2022/01/23 11:07:03;;;;;;;12.20;5.05;;;;;;;5.22;70.79;102093.78;5061409;28;20098;-57
2022/01/23 11:09:37;;;;;;;14.32;6.53;;;;;;;5.25;70.27;102093.06;5063668;28;20731;-58
2022/01/23 11:12:14;;;;;;;16.10;6.50;;;;;;;5.26;70.21;102097.41;5041664;28;20099;-57
2022/01/23 11:17:27;;;;;;;13.25;5.95;;;;;;;5.19;70.71;102098.75;5049696;28;20114;-59
2022/01/23 11:19:59;;;;;;;15.45;6.63;;;;;;;5.21;70.25;102098.84;5047679;28;20400;-58
2022/01/23 11:22:32;;;;;;;11.55;5.30;;;;;;;5.21;70.14;102088.56;5063846;28;20052;-58
2022/01/23 11:25:03;;;;;;;11.10;4.57;;;;;;;5.22;70.63;102082.63;5057512;28;20052;-57
2022/01/23 11:27:33;;;;;;;13.23;4.95;;;;;;;5.21;70.54;102091.13;5066860;28;20684;-59
2022/01/23 11:30:05;;;;;;;17.08;7.45;;;;;;;5.24;70.70;102086.16;5060245;28;20048;-60
2022/01/23 11:32:37;;;;;;;14.18;5.88;;;;;;;5.26;70.11;102092.25;5059960;28;20044;-57
2022/01/23 11:35:12;;;;;;;15.05;5.97;;;;;;;5.28;70.21;102085.53;5059848;28;20045;-57
2022/01/23 11:37:52;;;;;;;20.65;7.57;;;;;;;5.30;70.61;102081.31;5060118;28;20064;-58
2022/01/23 11:50:36;;;;;;;16.52;6.70;;;;;;;5.31;69.99;102082.22;5069408;28;20044;-59
2022/01/23 11:54:45;;;;;;;13.25;5.50;;;;;;;5.23;69.88;102064.72;5047773;28;20059;-56
2022/01/23 11:57:32;;;;;;;;;;;;;;;5.08;70.15;102067.38;5056476;28;20072;-56
2022/01/23 12:00:03;;;;;;;12.93;4.57;;;;;;;5.00;69.89;102076.38;5054676;28;19928;-58
2022/01/23 12:02:36;;;;;;;13.10;4.82;;;;;;;5.02;70.60;102064.47;5059139;28;20063;-60
2022/01/23 12:05:20;;;;;;;12.43;4.75;;;;;;;5.03;69.88;102066.25;5059964;28;20067;-57
2022/01/23 12:08:18;;;;;;;14.82;5.65;;;;;;;5.06;69.83;102056.13;5057028;28;20131;-56
2022/01/23 12:11:25;;;;;;;13.43;5.50;;;;;;;5.04;70.01;102057.75;5061720;28;20139;-54
2022/01/23 12:17:09;;;;;;;16.52;6.25;;;;;;;4.99;70.29;102043.75;5054375;28;20059;-53
2022/01/23 12:19:48;;;;;;;18.15;6.70;;;;;;;5.01;70.75;102037.91;5085382;28;20044;-55
2022/01/23 12:22:35;;;;;;;13.80;5.35;;;;;;;5.03;70.26;102034.56;5066724;28;20044;-57
2022/01/23 12:25:09;;;;;;;20.45;7.43;;;;;;;5.05;70.49;102033.81;5068088;28;20492;-55
2022/01/23 12:27:36;;;;;;;14.55;5.85;;;;;;;5.08;70.43;102031.41;5067194;28;20083;-58
2022/01/23 12:30:33;;;;;;;12.35;5.68;;;;;;;5.06;70.18;102040.72;5067769;28;20051;-54
2022/01/23 12:33:20;;;;;;;12.32;5.72;;;;;;;5.06;69.81;102030.44;5069212;28;20073;-57
2022/01/23 12:35:53;;;;;;;15.45;5.82;;;;;;;5.08;69.81;102027.97;5069393;28;20037;-58
2022/01/23 12:38:28;;;;;;;16.95;6.43;;;;;;;5.08;69.55;102025.38;5067200;28;20041;-59
2022/01/23 12:40:55;;;;;;;15.50;6.72;;;;;;;5.08;69.84;102017.69;5074985;28;20150;-57
2022/01/23 12:43:25;;;;;;;16.83;6.75;;;;;;;5.03;70.36;102025.13;5064140;28;20089;-56
2022/01/23 12:45:57;;;;;;;17.20;6.78;;;;;;;5.03;70.13;102014.88;5071803;28;20406;-58
2022/01/23 12:48:41;;;;;;;16.00;7.43;;;;;;;5.02;70.29;102013.09;5063364;28;20056;-57
2022/01/23 12:51:29;;;;;;;15.82;6.57;;;;;;;5.01;69.72;102007.09;5058415;28;20049;-59
2022/01/23 12:54:17;;;;;;;16.02;6.45;;;;;;;4.97;70.19;102009.44;5061102;28;20048;-56
2022/01/23 12:56:46;;;;;;;13.65;6.63;;;;;;;4.94;70.12;102004.13;5059823;28;20048;-57
2022/01/23 12:59:24;;;;;;;14.93;6.38;;;;;;;4.88;69.78;102000.44;5061543;28;20496;-55
2022/01/23 13:01:59;;;;;;;15.48;6.20;;;;;;;4.88;70.33;101991.84;5062630;28;20113;-59
2022/01/23 13:04:32;;;;;;;16.48;6.03;;;;;;;4.88;70.28;101992.75;5060924;28;20102;-57
2022/01/23 13:07:08;;;;;;;15.65;6.45;;;;;;;4.84;69.64;101988.25;5061219;28;20490;-57
2022/01/23 13:09:59;;;;;;;15.38;5.88;;;;;;;4.83;70.14;101983.91;5059460;28;20075;-60
2022/01/23 13:12:36;;;;;;;15.27;7.22;;;;;;;4.84;70.13;101992.50;5060553;28;20601;-60
2022/01/23 13:15:20;;;;;;;15.98;6.22;;;;;;;4.81;69.52;101977.81;5061370;28;20048;-58
2022/01/23 13:18:08;;;;;;;13.63;5.45;;;;;;;4.82;70.26;101974.44;5058180;28;20051;-57
2022/01/23 13:26:32;;;;;;;;;;;;;;;4.77;70.62;101978.47;5062449;28;19925;-58
2022/01/23 13:29:53;;;;;;;13.05;5.60;;;;;;;4.82;69.87;101977.00;5063117;28;19973;-54
2022/01/23 13:32:02;;;;;;;14.25;5.85;;;;;;;4.83;70.24;101978.75;5059458;28;20052;-52
2022/01/23 13:34:36;;;;;;;16.67;6.28;;;;;;;4.85;70.02;101977.19;5064068;28;20067;-58
2022/01/23 13:37:07;;;;;;;16.58;6.32;;;;;;;4.84;70.13;101977.97;5058264;28;20045;-55
2022/01/23 13:39:44;;;;;;;15.95;6.57;;;;;;;4.78;70.06;101976.75;5058335;28;20061;-57
2022/01/23 13:42:46;;;;;;;15.95;6.47;;;;;;;4.70;70.17;101978.94;5064713;28;20040;-56
2022/01/23 13:48:48;;;;;;;14.73;6.88;;;;;;;4.55;70.39;101972.19;5049268;28;20411;-58
2022/01/23 13:51:36;;;;;;;14.95;6.68;;;;;;;4.48;70.68;101970.97;5075359;28;20056;-56
2022/01/23 13:57:31;;;;;;;14.95;5.93;;;;;;;4.49;70.41;101970.19;5074347;28;20056;-55
2022/01/23 13:59:53;;;;;;;14.95;7.10;;;;;;;4.51;70.33;101957.44;5060767;28;20048;-57
2022/01/23 14:02:39;;;;;;;20.55;7.15;;;;;;;4.50;70.44;101960.81;5060556;28;20044;-56
2022/01/23 14:05:14;;;;;;;20.38;6.72;;;;;;;4.47;70.51;101960.63;5059116;28;20041;-57
2022/01/23 14:07:46;;;;;;;18.05;5.70;;;;;;;4.48;70.30;101958.16;5061057;28;20477;-57